sensor_id;sensor_type;location;lat;lon;timestamp;P1;P2;P0
57049;PMS7003;42935;50.966;16.992;2023-09-12T00:00:24;40;32;23
57049;PMS7003;42935;50.966;16.992;2023-09-12T00:03:47;36;32;22
57049;PMS7003;42935;50.966;16.992;2023-09-12T00:07:08;40;33;22
57049;PMS7003;42935;50.966;16.992;2023-09-12T00:10:29;42;34;23
57049;PMS7003;42935;50.966;16.992;2023-09-12T00:13:48;41;33;22
57049;PMS7003;42935;50.966;16.992;2023-09-12T00:17:10;39;33;22
57049;PMS7003;42935;50.966;16.992;2023-09-12T00:20:31;41;34;22
57049;PMS7003;42935;50.966;16.992;2023-09-12T00:23:48;38;33;22
57049;PMS7003;42935;50.966;16.992;2023-09-12T00:27:13;42;34;22
57049;PMS7003;42935;50.966;16.992;2023-09-12T00:30:38;39;32;21
57049;PMS7003;42935;50.966;16.992;2023-09-12T00:33:55;40;32;22
57049;PMS7003;42935;50.966;16.992;2023-09-12T00:37:20;42;35;22
57049;PMS7003;42935;50.966;16.992;2023-09-12T00:40:39;40;32;22
57049;PMS7003;42935;50.966;16.992;2023-09-12T00:43:56;39;34;23
57049;PMS7003;42935;50.966;16.992;2023-09-12T00:47:13;41;35;23
57049;PMS7003;42935;50.966;16.992;2023-09-12T00:50:35;38;32;21
57049;PMS7003;42935;50.966;16.992;2023-09-12T00:53:53;41;35;23
57049;PMS7003;42935;50.966;16.992;2023-09-12T00:57:20;41;34;22
57049;PMS7003;42935;50.966;16.992;2023-09-12T01:00:40;36;32;22
57049;PMS7003;42935;50.966;16.992;2023-09-12T01:04:01;44;34;21
57049;PMS7003;42935;50.966;16.992;2023-09-12T01:07:23;42;34;22
57049;PMS7003;42935;50.966;16.992;2023-09-12T01:10:40;36;31;21
57049;PMS7003;42935;50.966;16.992;2023-09-12T01:14:09;42;33;22
57049;PMS7003;42935;50.966;16.992;2023-09-12T01:17:30;38;32;22
57049;PMS7003;42935;50.966;16.992;2023-09-12T01:24:25;37;32;22
57049;PMS7003;42935;50.966;16.992;2023-09-12T01:27:54;35;32;22
57049;PMS7003;42935;50.966;16.992;2023-09-12T01:31:24;43;33;22
57049;PMS7003;42935;50.966;16.992;2023-09-12T01:34:41;37;32;22
57049;PMS7003;42935;50.966;16.992;2023-09-12T01:38:02;40;33;21
57049;PMS7003;42935;50.966;16.992;2023-09-12T01:41:20;37;33;22
57049;PMS7003;42935;50.966;16.992;2023-09-12T01:44:40;34;32;20
57049;PMS7003;42935;50.966;16.992;2023-09-12T01:48:00;40;34;22
57049;PMS7003;42935;50.966;16.992;2023-09-12T01:51:22;36;31;21
57049;PMS7003;42935;50.966;16.992;2023-09-12T01:54:45;37;32;21
57049;PMS7003;42935;50.966;16.992;2023-09-12T01:58:07;36;32;21
57049;PMS7003;42935;50.966;16.992;2023-09-12T02:01:33;39;32;21
57049;PMS7003;42935;50.966;16.992;2023-09-12T02:08:26;37;33;22
57049;PMS7003;42935;50.966;16.992;2023-09-12T02:11:42;36;32;21
57049;PMS7003;42935;50.966;16.992;2023-09-12T02:15:04;39;33;21
57049;PMS7003;42935;50.966;16.992;2023-09-12T02:18:21;37;32;21
57049;PMS7003;42935;50.966;16.992;2023-09-12T02:21:44;40;34;22
57049;PMS7003;42935;50.966;16.992;2023-09-12T02:25:07;38;32;22
57049;PMS7003;42935;50.966;16.992;2023-09-12T02:28:28;39;33;22
57049;PMS7003;42935;50.966;16.992;2023-09-12T02:31:49;36;32;21
57049;PMS7003;42935;50.966;16.992;2023-09-12T02:35:11;40;33;21
57049;PMS7003;42935;50.966;16.992;2023-09-12T02:38:25;32;29;20
57049;PMS7003;42935;50.966;16.992;2023-09-12T02:41:40;38;31;21
57049;PMS7003;42935;50.966;16.992;2023-09-12T02:44:57;38;32;22
57049;PMS7003;42935;50.966;16.992;2023-09-12T02:48:10;34;30;19
57049;PMS7003;42935;50.966;16.992;2023-09-12T02:51:31;36;31;21
57049;PMS7003;42935;50.966;16.992;2023-09-12T02:54:52;38;33;21
57049;PMS7003;42935;50.966;16.992;2023-09-12T02:58:09;36;32;23
57049;PMS7003;42935;50.966;16.992;2023-09-12T03:01:26;35;32;23
57049;PMS7003;42935;50.966;16.992;2023-09-12T03:04:51;45;37;23
57049;PMS7003;42935;50.966;16.992;2023-09-12T03:08:12;40;33;23
57049;PMS7003;42935;50.966;16.992;2023-09-12T03:12:04;45;35;22
57049;PMS7003;42935;50.966;16.992;2023-09-12T03:15:21;39;31;22
57049;PMS7003;42935;50.966;16.992;2023-09-12T03:18:42;38;33;22
57049;PMS7003;42935;50.966;16.992;2023-09-12T03:22:03;41;32;23
57049;PMS7003;42935;50.966;16.992;2023-09-12T03:25:20;32;30;21
57049;PMS7003;42935;50.966;16.992;2023-09-12T03:28:50;40;35;22
57049;PMS7003;42935;50.966;16.992;2023-09-12T03:32:07;34;31;21
57049;PMS7003;42935;50.966;16.992;2023-09-12T03:35:29;44;36;23
57049;PMS7003;42935;50.966;16.992;2023-09-12T03:38:50;42;35;23
57049;PMS7003;42935;50.966;16.992;2023-09-12T03:42:09;37;32;22
57049;PMS7003;42935;50.966;16.992;2023-09-12T03:45:28;41;35;22
57049;PMS7003;42935;50.966;16.992;2023-09-12T03:48:50;40;34;22
57049;PMS7003;42935;50.966;16.992;2023-09-12T03:52:03;41;33;22
57049;PMS7003;42935;50.966;16.992;2023-09-12T03:55:25;38;31;21
57049;PMS7003;42935;50.966;16.992;2023-09-12T03:58:49;35;31;20
57049;PMS7003;42935;50.966;16.992;2023-09-12T04:02:07;39;32;22
57049;PMS7003;42935;50.966;16.992;2023-09-12T04:05:29;35;32;21
57049;PMS7003;42935;50.966;16.992;2023-09-12T04:08:42;33;30;21
57049;PMS7003;42935;50.966;16.992;2023-09-12T04:12:05;35;31;20
57049;PMS7003;42935;50.966;16.992;2023-09-12T04:15:21;35;30;20
57049;PMS7003;42935;50.966;16.992;2023-09-12T04:19:10;32;29;20
57049;PMS7003;42935;50.966;16.992;2023-09-12T04:23:01;39;34;22
57049;PMS7003;42935;50.966;16.992;2023-09-12T04:26:24;39;33;20
57049;PMS7003;42935;50.966;16.992;2023-09-12T04:33:50;36;31;20
57049;PMS7003;42935;50.966;16.992;2023-09-12T04:37:46;39;33;21
57049;PMS7003;42935;50.966;16.992;2023-09-12T04:41:34;37;30;20
57049;PMS7003;42935;50.966;16.992;2023-09-12T04:45:25;39;31;21
57049;PMS7003;42935;50.966;16.992;2023-09-12T04:49:21;39;33;22
57049;PMS7003;42935;50.966;16.992;2023-09-12T04:52:42;33;30;21
57049;PMS7003;42935;50.966;16.992;2023-09-12T04:56:04;41;34;23
57049;PMS7003;42935;50.966;16.992;2023-09-12T04:59:23;33;30;20
57049;PMS7003;42935;50.966;16.992;2023-09-12T05:03:11;36;32;20
57049;PMS7003;42935;50.966;16.992;2023-09-12T05:06:31;43;35;23
57049;PMS7003;42935;50.966;16.992;2023-09-12T05:09:52;40;34;22
57049;PMS7003;42935;50.966;16.992;2023-09-12T05:13:13;42;35;22
57049;PMS7003;42935;50.966;16.992;2023-09-12T05:16:30;40;34;22
57049;PMS7003;42935;50.966;16.992;2023-09-12T05:19:51;41;34;23
57049;PMS7003;42935;50.966;16.992;2023-09-12T05:23:13;41;34;23
57049;PMS7003;42935;50.966;16.992;2023-09-12T05:26:33;39;33;22
57049;PMS7003;42935;50.966;16.992;2023-09-12T05:29:57;40;35;24
57049;PMS7003;42935;50.966;16.992;2023-09-12T05:33:10;41;32;22
57049;PMS7003;42935;50.966;16.992;2023-09-12T05:36:31;45;38;24
57049;PMS7003;42935;50.966;16.992;2023-09-12T05:40:17;47;37;24
57049;PMS7003;42935;50.966;16.992;2023-09-12T05:43:31;45;36;23
57049;PMS7003;42935;50.966;16.992;2023-09-12T05:46:52;41;34;23
57049;PMS7003;42935;50.966;16.992;2023-09-12T05:50:09;43;35;23
57049;PMS7003;42935;50.966;16.992;2023-09-12T05:53:27;43;34;24
57049;PMS7003;42935;50.966;16.992;2023-09-12T05:57:17;42;35;22
57049;PMS7003;42935;50.966;16.992;2023-09-12T06:00:36;47;38;25
57049;PMS7003;42935;50.966;16.992;2023-09-12T06:04:23;37;32;22
57049;PMS7003;42935;50.966;16.992;2023-09-12T06:07:47;42;35;23
57049;PMS7003;42935;50.966;16.992;2023-09-12T06:11:34;45;36;23
57049;PMS7003;42935;50.966;16.992;2023-09-12T06:15:21;45;36;23
57049;PMS7003;42935;50.966;16.992;2023-09-12T06:19:06;41;34;23
57049;PMS7003;42935;50.966;16.992;2023-09-12T06:22:56;45;35;24
57049;PMS7003;42935;50.966;16.992;2023-09-12T06:26:19;40;34;22
57049;PMS7003;42935;50.966;16.992;2023-09-12T06:30:07;39;35;22
57049;PMS7003;42935;50.966;16.992;2023-09-12T06:33:30;42;33;21
57049;PMS7003;42935;50.966;16.992;2023-09-12T06:37:20;40;33;22
57049;PMS7003;42935;50.966;16.992;2023-09-12T06:41:08;40;33;22
57049;PMS7003;42935;50.966;16.992;2023-09-12T06:44:23;37;31;21
57049;PMS7003;42935;50.966;16.992;2023-09-12T06:47:48;39;35;23
57049;PMS7003;42935;50.966;16.992;2023-09-12T06:51:35;34;30;19
57049;PMS7003;42935;50.966;16.992;2023-09-12T06:54:50;37;29;21
57049;PMS7003;42935;50.966;16.992;2023-09-12T06:58:09;40;32;22
57049;PMS7003;42935;50.966;16.992;2023-09-12T07:01:31;36;31;21
57049;PMS7003;42935;50.966;16.992;2023-09-12T07:04:54;40;32;21
57049;PMS7003;42935;50.966;16.992;2023-09-12T07:08:14;39;31;21
57049;PMS7003;42935;50.966;16.992;2023-09-12T07:11:29;33;29;20
57049;PMS7003;42935;50.966;16.992;2023-09-12T07:14:46;36;31;21
57049;PMS7003;42935;50.966;16.992;2023-09-12T07:18:06;35;31;21
57049;PMS7003;42935;50.966;16.992;2023-09-12T07:21:35;37;32;21
57049;PMS7003;42935;50.966;16.992;2023-09-12T07:25:22;35;30;20
57049;PMS7003;42935;50.966;16.992;2023-09-12T07:28:41;36;31;20
57049;PMS7003;42935;50.966;16.992;2023-09-12T07:31:56;38;31;22
57049;PMS7003;42935;50.966;16.992;2023-09-12T07:35:13;30;27;19
57049;PMS7003;42935;50.966;16.992;2023-09-12T07:38:33;38;31;21
57049;PMS7003;42935;50.966;16.992;2023-09-12T07:41:57;33;29;20
57049;PMS7003;42935;50.966;16.992;2023-09-12T07:45:18;30;28;19
57049;PMS7003;42935;50.966;16.992;2023-09-12T07:48:40;28;27;19
57049;PMS7003;42935;50.966;16.992;2023-09-12T07:52:02;28;25;19
57049;PMS7003;42935;50.966;16.992;2023-09-12T07:55:27;29;26;18
57049;PMS7003;42935;50.966;16.992;2023-09-12T07:58:49;35;28;20
57049;PMS7003;42935;50.966;16.992;2023-09-12T08:02:40;29;27;19
57049;PMS7003;42935;50.966;16.992;2023-09-12T08:06:28;34;29;20
57049;PMS7003;42935;50.966;16.992;2023-09-12T08:09:53;32;27;19
57049;PMS7003;42935;50.966;16.992;2023-09-12T08:13:45;30;27;19
57049;PMS7003;42935;50.966;16.992;2023-09-12T08:17:13;30;28;18
57049;PMS7003;42935;50.966;16.992;2023-09-12T08:21:01;29;27;19
57049;PMS7003;42935;50.966;16.992;2023-09-12T08:24:18;27;27;19
57049;PMS7003;42935;50.966;16.992;2023-09-12T08:27:35;30;27;19
57049;PMS7003;42935;50.966;16.992;2023-09-12T08:30:56;36;30;20
57049;PMS7003;42935;50.966;16.992;2023-09-12T08:34:17;31;29;19
57049;PMS7003;42935;50.966;16.992;2023-09-12T08:37:33;29;26;19
57049;PMS7003;42935;50.966;16.992;2023-09-12T08:40:51;28;26;19
57049;PMS7003;42935;50.966;16.992;2023-09-12T08:44:09;30;27;19
57049;PMS7003;42935;50.966;16.992;2023-09-12T08:48:00;31;27;20
57049;PMS7003;42935;50.966;16.992;2023-09-12T08:51:20;25;24;17
57049;PMS7003;42935;50.966;16.992;2023-09-12T08:54:41;31;28;20
57049;PMS7003;42935;50.966;16.992;2023-09-12T08:58:32;29;27;18
57049;PMS7003;42935;50.966;16.992;2023-09-12T09:02:20;30;27;18
57049;PMS7003;42935;50.966;16.992;2023-09-12T09:06:08;25;24;19
57049;PMS7003;42935;50.966;16.992;2023-09-12T09:09:26;30;26;17
57049;PMS7003;42935;50.966;16.992;2023-09-12T09:13:21;28;26;19
57049;PMS7003;42935;50.966;16.992;2023-09-12T09:16:42;27;26;18
57049;PMS7003;42935;50.966;16.992;2023-09-12T09:20:03;28;26;18
57049;PMS7003;42935;50.966;16.992;2023-09-12T09:23:52;24;22;17
57049;PMS7003;42935;50.966;16.992;2023-09-12T09:27:10;25;25;18
57049;PMS7003;42935;50.966;16.992;2023-09-12T09:33:51;25;22;17
57049;PMS7003;42935;50.966;16.992;2023-09-12T09:37:38;26;25;17
57049;PMS7003;42935;50.966;16.992;2023-09-12T09:41:27;24;23;16
57049;PMS7003;42935;50.966;16.992;2023-09-12T09:44:40;23;21;17
57049;PMS7003;42935;50.966;16.992;2023-09-12T09:47:57;25;22;16
57049;PMS7003;42935;50.966;16.992;2023-09-12T09:51:11;27;24;17
57049;PMS7003;42935;50.966;16.992;2023-09-12T09:54:34;24;23;18
57049;PMS7003;42935;50.966;16.992;2023-09-12T09:57:54;28;25;17
57049;PMS7003;42935;50.966;16.992;2023-09-12T10:01:41;23;22;16
57049;PMS7003;42935;50.966;16.992;2023-09-12T10:05:02;20;19;15
57049;PMS7003;42935;50.966;16.992;2023-09-12T10:08:22;20;19;14
57049;PMS7003;42935;50.966;16.992;2023-09-12T10:11:43;22;20;15
57049;PMS7003;42935;50.966;16.992;2023-09-12T10:15:30;21;20;15
57049;PMS7003;42935;50.966;16.992;2023-09-12T10:19:19;20;19;15
57049;PMS7003;42935;50.966;16.992;2023-09-12T10:22:43;21;19;14
57049;PMS7003;42935;50.966;16.992;2023-09-12T10:26:50;22;18;13
57049;PMS7003;42935;50.966;16.992;2023-09-12T10:30:38;18;18;14
57049;PMS7003;42935;50.966;16.992;2023-09-12T10:33:54;19;18;14
57049;PMS7003;42935;50.966;16.992;2023-09-12T10:37:45;17;16;11
57049;PMS7003;42935;50.966;16.992;2023-09-12T10:41:39;18;17;13
57049;PMS7003;42935;50.966;16.992;2023-09-12T10:44:58;20;18;14
57049;PMS7003;42935;50.966;16.992;2023-09-12T10:48:19;19;18;13
57049;PMS7003;42935;50.966;16.992;2023-09-12T10:51:38;19;18;13
57049;PMS7003;42935;50.966;16.992;2023-09-12T10:55:35;19;16;12
57049;PMS7003;42935;50.966;16.992;2023-09-12T10:59:08;16;16;12
57049;PMS7003;42935;50.966;16.992;2023-09-12T11:03:35;17;16;13
57049;PMS7003;42935;50.966;16.992;2023-09-12T11:06:30;20;16;13
57049;PMS7003;42935;50.966;16.992;2023-09-12T11:10:15;17;16;12
57049;PMS7003;42935;50.966;16.992;2023-09-12T11:13:16;19;17;13
57049;PMS7003;42935;50.966;16.992;2023-09-12T11:24:32;18;16;12
57049;PMS7003;42935;50.966;16.992;2023-09-12T11:28:34;18;16;12
57049;PMS7003;42935;50.966;16.992;2023-09-12T11:35:14;21;19;13
57049;PMS7003;42935;50.966;16.992;2023-09-12T11:39:03;18;15;11
57049;PMS7003;42935;50.966;16.992;2023-09-12T11:43:04;17;16;12
57049;PMS7003;42935;50.966;16.992;2023-09-12T11:46:50;19;17;13
57049;PMS7003;42935;50.966;16.992;2023-09-12T11:50:41;16;16;12
57049;PMS7003;42935;50.966;16.992;2023-09-12T11:54:31;18;17;13
57049;PMS7003;42935;50.966;16.992;2023-09-12T11:58:23;20;18;14
57049;PMS7003;42935;50.966;16.992;2023-09-12T12:06:00;20;18;14
57049;PMS7003;42935;50.966;16.992;2023-09-12T12:09:23;19;17;14
57049;PMS7003;42935;50.966;16.992;2023-09-12T12:16:48;21;20;14
57049;PMS7003;42935;50.966;16.992;2023-09-12T12:20:38;19;16;12
57049;PMS7003;42935;50.966;16.992;2023-09-12T12:24:00;17;15;12
57049;PMS7003;42935;50.966;16.992;2023-09-12T12:27:19;21;18;13
57049;PMS7003;42935;50.966;16.992;2023-09-12T12:30:41;22;19;15
57049;PMS7003;42935;50.966;16.992;2023-09-12T12:33:58;21;18;14
57049;PMS7003;42935;50.966;16.992;2023-09-12T12:37:19;20;17;13
57049;PMS7003;42935;50.966;16.992;2023-09-12T12:40:39;16;15;12
57049;PMS7003;42935;50.966;16.992;2023-09-12T12:48:34;20;19;13
57049;PMS7003;42935;50.966;16.992;2023-09-12T12:51:51;18;15;12
57049;PMS7003;42935;50.966;16.992;2023-09-12T12:55:13;17;16;13
57049;PMS7003;42935;50.966;16.992;2023-09-12T12:58:34;20;18;14
57049;PMS7003;42935;50.966;16.992;2023-09-12T13:01:52;18;17;14
57049;PMS7003;42935;50.966;16.992;2023-09-12T13:08:35;21;18;14
57049;PMS7003;42935;50.966;16.992;2023-09-12T13:11:52;19;18;14
57049;PMS7003;42935;50.966;16.992;2023-09-12T13:15:05;20;19;14
57049;PMS7003;42935;50.966;16.992;2023-09-12T13:18:24;18;17;14
57049;PMS7003;42935;50.966;16.992;2023-09-12T13:21:40;18;17;12
57049;PMS7003;42935;50.966;16.992;2023-09-12T13:24:56;16;14;11
57049;PMS7003;42935;50.966;16.992;2023-09-12T13:28:11;19;17;12
57049;PMS7003;42935;50.966;16.992;2023-09-12T13:31:28;18;16;13
57049;PMS7003;42935;50.966;16.992;2023-09-12T13:34:54;20;16;13
57049;PMS7003;42935;50.966;16.992;2023-09-12T13:38:11;20;18;11
57049;PMS7003;42935;50.966;16.992;2023-09-12T13:41:29;19;17;13
57049;PMS7003;42935;50.966;16.992;2023-09-12T13:44:44;19;18;13
57049;PMS7003;42935;50.966;16.992;2023-09-12T13:48:05;21;17;13
57049;PMS7003;42935;50.966;16.992;2023-09-12T13:51:23;15;15;13
57049;PMS7003;42935;50.966;16.992;2023-09-12T13:54:38;17;17;13
57049;PMS7003;42935;50.966;16.992;2023-09-12T13:57:54;20;17;13
57049;PMS7003;42935;50.966;16.992;2023-09-12T14:01:11;16;16;12
57049;PMS7003;42935;50.966;16.992;2023-09-12T14:04:28;18;16;12
57049;PMS7003;42935;50.966;16.992;2023-09-12T14:07:45;18;18;14
57049;PMS7003;42935;50.966;16.992;2023-09-12T14:11:03;18;17;13
57049;PMS7003;42935;50.966;16.992;2023-09-12T14:14:22;21;18;14
57049;PMS7003;42935;50.966;16.992;2023-09-12T14:17:41;18;17;14
57049;PMS7003;42935;50.966;16.992;2023-09-12T14:20:59;18;17;13
57049;PMS7003;42935;50.966;16.992;2023-09-12T14:24:16;19;16;13
57049;PMS7003;42935;50.966;16.992;2023-09-12T14:27:36;16;15;12
57049;PMS7003;42935;50.966;16.992;2023-09-12T14:30:57;18;15;12
57049;PMS7003;42935;50.966;16.992;2023-09-12T14:34:14;16;15;12
57049;PMS7003;42935;50.966;16.992;2023-09-12T14:37:38;18;18;13
57049;PMS7003;42935;50.966;16.992;2023-09-12T14:40:57;18;17;13
57049;PMS7003;42935;50.966;16.992;2023-09-12T14:44:18;19;18;14
57049;PMS7003;42935;50.966;16.992;2023-09-12T14:47:34;18;17;13
57049;PMS7003;42935;50.966;16.992;2023-09-12T14:50:52;20;17;13
57049;PMS7003;42935;50.966;16.992;2023-09-12T14:54:13;17;16;13
57049;PMS7003;42935;50.966;16.992;2023-09-12T14:57:56;19;19;14
57049;PMS7003;42935;50.966;16.992;2023-09-12T15:01:12;18;17;12
57049;PMS7003;42935;50.966;16.992;2023-09-12T15:04:55;19;18;14
57049;PMS7003;42935;50.966;16.992;2023-09-12T15:08:16;20;20;15
57049;PMS7003;42935;50.966;16.992;2023-09-12T15:11:37;18;17;12
57049;PMS7003;42935;50.966;16.992;2023-09-12T15:14:55;18;17;13
57049;PMS7003;42935;50.966;16.992;2023-09-12T15:18:12;19;18;14
57049;PMS7003;42935;50.966;16.992;2023-09-12T15:21:25;18;17;13
57049;PMS7003;42935;50.966;16.992;2023-09-12T15:24:45;18;17;13
57049;PMS7003;42935;50.966;16.992;2023-09-12T15:27:59;20;19;15
57049;PMS7003;42935;50.966;16.992;2023-09-12T15:31:16;19;18;15
57049;PMS7003;42935;50.966;16.992;2023-09-12T15:34:32;21;18;14
57049;PMS7003;42935;50.966;16.992;2023-09-12T15:37:53;21;17;13
57049;PMS7003;42935;50.966;16.992;2023-09-12T15:41:44;20;19;16
57049;PMS7003;42935;50.966;16.992;2023-09-12T15:44:59;18;17;13
57049;PMS7003;42935;50.966;16.992;2023-09-12T15:48:18;19;17;14
57049;PMS7003;42935;50.966;16.992;2023-09-12T15:51:35;21;19;16
57049;PMS7003;42935;50.966;16.992;2023-09-12T15:54:53;21;19;14
57049;PMS7003;42935;50.966;16.992;2023-09-12T15:58:10;19;17;13
57049;PMS7003;42935;50.966;16.992;2023-09-12T16:01:31;25;20;16
57049;PMS7003;42935;50.966;16.992;2023-09-12T16:04:52;26;23;16
57049;PMS7003;42935;50.966;16.992;2023-09-12T16:08:13;22;21;14
57049;PMS7003;42935;50.966;16.992;2023-09-12T16:11:35;28;21;15
57049;PMS7003;42935;50.966;16.992;2023-09-12T16:15:00;23;20;15
57049;PMS7003;42935;50.966;16.992;2023-09-12T16:18:17;23;22;15
57049;PMS7003;42935;50.966;16.992;2023-09-12T16:21:32;24;21;15
57049;PMS7003;42935;50.966;16.992;2023-09-12T16:24:50;27;23;16
57049;PMS7003;42935;50.966;16.992;2023-09-12T16:28:07;26;21;15
57049;PMS7003;42935;50.966;16.992;2023-09-12T16:31:20;24;23;16
57049;PMS7003;42935;50.966;16.992;2023-09-12T16:35:13;30;27;17
57049;PMS7003;42935;50.966;16.992;2023-09-12T16:38:37;26;22;16
57049;PMS7003;42935;50.966;16.992;2023-09-12T16:41:50;23;22;16
57049;PMS7003;42935;50.966;16.992;2023-09-12T16:45:15;31;26;18
57049;PMS7003;42935;50.966;16.992;2023-09-12T16:48:32;26;24;17
57049;PMS7003;42935;50.966;16.992;2023-09-12T16:51:54;30;25;18
57049;PMS7003;42935;50.966;16.992;2023-09-12T16:55:11;21;20;14
57049;PMS7003;42935;50.966;16.992;2023-09-12T16:58:28;20;19;15
57049;PMS7003;42935;50.966;16.992;2023-09-12T17:01:47;21;20;15
57049;PMS7003;42935;50.966;16.992;2023-09-12T17:05:08;20;19;15
57049;PMS7003;42935;50.966;16.992;2023-09-12T17:08:34;22;21;14
57049;PMS7003;42935;50.966;16.992;2023-09-12T17:11:51;21;19;14
57049;PMS7003;42935;50.966;16.992;2023-09-12T17:15:09;21;20;15
57049;PMS7003;42935;50.966;16.992;2023-09-12T17:18:27;19;19;14
57049;PMS7003;42935;50.966;16.992;2023-09-12T17:21:56;23;21;16
57049;PMS7003;42935;50.966;16.992;2023-09-12T17:25:13;20;19;14
57049;PMS7003;42935;50.966;16.992;2023-09-12T17:28:28;23;20;15
57049;PMS7003;42935;50.966;16.992;2023-09-12T17:31:45;24;22;16
57049;PMS7003;42935;50.966;16.992;2023-09-12T17:35:08;24;23;17
57049;PMS7003;42935;50.966;16.992;2023-09-12T17:38:23;25;24;18
57049;PMS7003;42935;50.966;16.992;2023-09-12T17:41:37;28;24;18
57049;PMS7003;42935;50.966;16.992;2023-09-12T17:45:00;31;27;18
57049;PMS7003;42935;50.966;16.992;2023-09-12T17:48:18;34;29;20
57049;PMS7003;42935;50.966;16.992;2023-09-12T17:51:39;30;25;18
57049;PMS7003;42935;50.966;16.992;2023-09-12T17:55:00;30;24;18
57049;PMS7003;42935;50.966;16.992;2023-09-12T17:58:19;24;24;18
57049;PMS7003;42935;50.966;16.992;2023-09-12T18:01:36;28;25;19
57049;PMS7003;42935;50.966;16.992;2023-09-12T18:04:53;29;26;18
57049;PMS7003;42935;50.966;16.992;2023-09-12T18:08:14;28;25;17
57049;PMS7003;42935;50.966;16.992;2023-09-12T18:11:35;40;32;21
57049;PMS7003;42935;50.966;16.992;2023-09-12T18:14:52;33;27;19
57049;PMS7003;42935;50.966;16.992;2023-09-12T18:18:09;27;26;18
57049;PMS7003;42935;50.966;16.992;2023-09-12T18:21:55;33;29;20
57049;PMS7003;42935;50.966;16.992;2023-09-12T18:25:08;35;31;22
57049;PMS7003;42935;50.966;16.992;2023-09-12T18:31:53;35;31;21
57049;PMS7003;42935;50.966;16.992;2023-09-12T18:35:14;32;28;20
57049;PMS7003;42935;50.966;16.992;2023-09-12T18:38:41;33;29;21
57049;PMS7003;42935;50.966;16.992;2023-09-12T18:41:59;33;30;21
57049;PMS7003;42935;50.966;16.992;2023-09-12T18:45:16;33;28;20
57049;PMS7003;42935;50.966;16.992;2023-09-12T18:48:33;30;27;19
57049;PMS7003;42935;50.966;16.992;2023-09-12T18:51:54;36;31;21
57049;PMS7003;42935;50.966;16.992;2023-09-12T18:55:20;37;31;21
57049;PMS7003;42935;50.966;16.992;2023-09-12T18:58:34;30;27;20
57049;PMS7003;42935;50.966;16.992;2023-09-12T19:01:49;28;27;19
57049;PMS7003;42935;50.966;16.992;2023-09-12T19:05:04;31;28;18
57049;PMS7003;42935;50.966;16.992;2023-09-12T19:08:18;32;29;20
57049;PMS7003;42935;50.966;16.992;2023-09-12T19:11:33;35;29;21
57049;PMS7003;42935;50.966;16.992;2023-09-12T19:14:56;34;29;20
57049;PMS7003;42935;50.966;16.992;2023-09-12T19:18:13;31;28;19
57049;PMS7003;42935;50.966;16.992;2023-09-12T19:21:34;34;30;20
57049;PMS7003;42935;50.966;16.992;2023-09-12T19:24:51;32;27;19
57049;PMS7003;42935;50.966;16.992;2023-09-12T19:28:08;33;30;22
57049;PMS7003;42935;50.966;16.992;2023-09-12T19:31:29;33;28;19
57049;PMS7003;42935;50.966;16.992;2023-09-12T19:34:46;31;28;20
57049;PMS7003;42935;50.966;16.992;2023-09-12T19:38:01;32;28;20
57049;PMS7003;42935;50.966;16.992;2023-09-12T19:41:19;34;31;21
57049;PMS7003;42935;50.966;16.992;2023-09-12T19:44:35;37;30;20
57049;PMS7003;42935;50.966;16.992;2023-09-12T19:48:03;37;32;21
57049;PMS7003;42935;50.966;16.992;2023-09-12T19:51:25;40;33;21
57049;PMS7003;42935;50.966;16.992;2023-09-12T19:54:46;41;35;24
57049;PMS7003;42935;50.966;16.992;2023-09-12T19:58:07;38;33;23
57049;PMS7003;42935;50.966;16.992;2023-09-12T20:01:32;42;35;24
57049;PMS7003;42935;50.966;16.992;2023-09-12T20:04:49;35;31;21
57049;PMS7003;42935;50.966;16.992;2023-09-12T20:08:06;32;29;20
57049;PMS7003;42935;50.966;16.992;2023-09-12T20:11:32;32;29;20
57049;PMS7003;42935;50.966;16.992;2023-09-12T20:14:54;37;31;21
57049;PMS7003;42935;50.966;16.992;2023-09-12T20:18:12;35;30;20
57049;PMS7003;42935;50.966;16.992;2023-09-12T20:21:30;31;29;20
57049;PMS7003;42935;50.966;16.992;2023-09-12T20:24:54;37;31;20
57049;PMS7003;42935;50.966;16.992;2023-09-12T20:28:13;34;30;20
57049;PMS7003;42935;50.966;16.992;2023-09-12T20:31:30;35;31;21
57049;PMS7003;42935;50.966;16.992;2023-09-12T20:34:55;40;33;22
57049;PMS7003;42935;50.966;16.992;2023-09-12T20:38:21;40;35;22
57049;PMS7003;42935;50.966;16.992;2023-09-12T20:41:38;36;31;22
57049;PMS7003;42935;50.966;16.992;2023-09-12T20:44:55;39;34;22
57049;PMS7003;42935;50.966;16.992;2023-09-12T20:48:16;42;35;23
57049;PMS7003;42935;50.966;16.992;2023-09-12T20:51:39;42;36;22
57049;PMS7003;42935;50.966;16.992;2023-09-12T20:55:02;44;36;23
57049;PMS7003;42935;50.966;16.992;2023-09-12T20:58:16;35;32;23
57049;PMS7003;42935;50.966;16.992;2023-09-12T21:01:33;39;33;22
57049;PMS7003;42935;50.966;16.992;2023-09-12T21:04:50;37;32;22
57049;PMS7003;42935;50.966;16.992;2023-09-12T21:08:07;35;31;21
57049;PMS7003;42935;50.966;16.992;2023-09-12T21:11:28;32;28;20
57049;PMS7003;42935;50.966;16.992;2023-09-12T21:14:50;38;30;21
57049;PMS7003;42935;50.966;16.992;2023-09-12T21:18:07;38;31;20
57049;PMS7003;42935;50.966;16.992;2023-09-12T21:21:24;35;31;21
57049;PMS7003;42935;50.966;16.992;2023-09-12T21:24:43;35;30;21
57049;PMS7003;42935;50.966;16.992;2023-09-12T21:27:57;34;30;21
57049;PMS7003;42935;50.966;16.992;2023-09-12T21:31:15;32;29;20
57049;PMS7003;42935;50.966;16.992;2023-09-12T21:34:31;33;29;20
57049;PMS7003;42935;50.966;16.992;2023-09-12T21:37:52;37;31;20
57049;PMS7003;42935;50.966;16.992;2023-09-12T21:41:09;37;31;22
57049;PMS7003;42935;50.966;16.992;2023-09-12T21:44:37;37;32;21
57049;PMS7003;42935;50.966;16.992;2023-09-12T21:47:54;37;30;21
57049;PMS7003;42935;50.966;16.992;2023-09-12T21:51:12;39;33;22
57049;PMS7003;42935;50.966;16.992;2023-09-12T21:54:30;39;33;22
57049;PMS7003;42935;50.966;16.992;2023-09-12T21:57:47;38;32;20
57049;PMS7003;42935;50.966;16.992;2023-09-12T22:01:04;39;31;21
57049;PMS7003;42935;50.966;16.992;2023-09-12T22:04:25;39;32;21
57049;PMS7003;42935;50.966;16.992;2023-09-12T22:07:51;39;33;21
57049;PMS7003;42935;50.966;16.992;2023-09-12T22:11:14;38;33;22
57049;PMS7003;42935;50.966;16.992;2023-09-12T22:14:29;37;32;21